createdAt,value
2022-08-07T00:00:03.530Z,1.20
2022-08-07T00:05:42.638Z,1.10
2022-08-07T00:11:06.457Z,1.13
2022-08-07T00:16:28.089Z,1.00
2022-08-07T00:21:56.635Z,1.13
2022-08-07T00:27:23.121Z,1.08
2022-08-07T00:32:49.363Z,1.00
2022-08-07T00:38:10.437Z,1.00
2022-08-07T00:43:59.858Z,0.80
2022-08-07T00:49:24.971Z,0.80
2022-08-07T00:54:55.748Z,0.80
2022-08-07T01:00:29.059Z,1.10
2022-08-07T01:05:56.054Z,0.80
2022-08-07T01:12:09.387Z,0.75
2022-08-07T01:17:00.221Z,1.23
2022-08-07T01:22:29.133Z,0.82
2022-08-07T01:27:52.720Z,0.68
2022-08-07T01:33:15.707Z,0.80
2022-08-07T01:38:39.322Z,1.00
2022-08-07T01:44:12.325Z,0.90
2022-08-07T01:49:36.622Z,1.00
2022-08-07T01:55:00.347Z,0.90
2022-08-07T02:00:32.054Z,0.67
2022-08-07T02:06:00.811Z,0.70
2022-08-07T02:11:30.777Z,0.80
2022-08-07T02:17:26.503Z,1.02
2022-08-07T02:22:54.898Z,0.90
2022-08-07T02:28:25.571Z,0.90
2022-08-07T02:34:01.937Z,1.00
2022-08-07T02:39:43.979Z,1.00
2022-08-07T02:45:59.145Z,1.10
2022-08-07T02:51:01.536Z,1.20
2022-08-07T02:56:24.285Z,1.33
2022-08-07T03:01:52.310Z,1.00
2022-08-07T03:07:18.333Z,0.90
2022-08-07T03:13:01.575Z,0.90
2022-08-07T03:18:36.047Z,0.88
2022-08-07T03:24:18.201Z,0.82
2022-08-07T03:29:49.657Z,0.82
2022-08-07T03:35:26.336Z,1.30
2022-08-07T03:40:57.153Z,1.10
2022-08-07T03:46:19.146Z,0.80
2022-08-07T03:51:47.493Z,0.98
2022-08-07T03:59:05.689Z,0.93
2022-08-07T04:02:56.735Z,1.13
2022-08-07T04:08:24.171Z,0.88
2022-08-07T04:14:09.215Z,0.77
2022-08-07T04:19:50.915Z,0.95
2022-08-07T04:25:12.733Z,0.88
2022-08-07T04:30:55.591Z,0.95
2022-08-07T04:36:26.047Z,0.93
2022-08-07T04:41:50.391Z,0.90
2022-08-07T04:48:01.308Z,0.90
2022-08-07T04:54:05.207Z,0.57
2022-08-07T05:00:09.976Z,1.00
2022-08-07T05:05:52.042Z,0.90
2022-08-07T05:11:57.604Z,0.80
2022-08-07T05:17:16.153Z,0.60
2022-08-07T05:23:01.912Z,0.73
2022-08-07T05:28:26.782Z,0.52
2022-08-07T05:34:04.348Z,0.80
2022-08-07T05:40:13.567Z,0.60
2022-08-07T05:45:25.794Z,0.75
2022-08-07T05:50:51.331Z,0.57
2022-08-07T05:56:18.234Z,0.55
2022-08-07T06:01:45.280Z,0.50
2022-08-07T06:07:07.757Z,0.70
2022-08-07T06:12:33.353Z,0.50
2022-08-07T06:17:56.122Z,0.60
2022-08-07T06:23:46.198Z,0.50
2022-08-07T06:29:01.228Z,0.55
2022-08-07T06:34:29.543Z,0.70
2022-08-07T06:40:17.323Z,0.90
2022-08-07T06:45:35.731Z,0.55
2022-08-07T06:51:00.291Z,0.80
2022-08-07T06:56:49.703Z,0.45
2022-08-07T07:02:48.453Z,0.70
2022-08-07T07:08:06.727Z,0.57
2022-08-07T07:13:57.583Z,0.52
2022-08-07T07:19:55.406Z,0.80
2022-08-07T07:26:31.382Z,0.70
2022-08-07T07:31:08.091Z,0.40
2022-08-07T07:36:32.883Z,0.77
2022-08-07T07:42:12.871Z,0.68
2022-08-07T07:47:51.865Z,0.80
2022-08-07T07:53:20.594Z,0.50
2022-08-07T07:58:44.588Z,0.40
2022-08-07T08:04:11.646Z,0.50
2022-08-07T08:09:52.419Z,0.50
2022-08-07T08:15:15.738Z,0.43
2022-08-07T08:20:39.129Z,0.35
2022-08-07T08:26:27.134Z,0.75
2022-08-07T08:31:59.242Z,0.60
2022-08-07T08:38:00.813Z,0.50
2022-08-07T08:43:32.040Z,0.40
2022-08-07T08:49:13.121Z,0.57
2022-08-07T08:54:45.173Z,0.75
2022-08-07T09:00:09.277Z,0.47
2022-08-07T09:05:59.008Z,0.40
2022-08-07T09:17:33.986Z,0.30
2022-08-07T09:24:31.727Z,0.50
2022-08-07T09:36:04.927Z,0.50
2022-08-07T09:41:59.055Z,0.77
2022-08-07T09:48:01.321Z,0.40
2022-08-07T09:53:41.266Z,0.20
2022-08-07T10:00:00.298Z,0.65
2022-08-07T10:05:59.662Z,0.35
2022-08-07T10:12:02.327Z,0.40
2022-08-07T10:18:01.261Z,0.30
2022-08-07T10:24:06.893Z,0.30
2022-08-07T10:30:07.482Z,0.50
2022-08-07T10:35:55.939Z,0.40
2022-08-07T10:41:51.350Z,0.32
2022-08-07T10:47:51.618Z,0.40
2022-08-07T10:53:27.855Z,0.50
2022-08-07T10:59:30.371Z,0.40
2022-08-07T11:04:59.582Z,0.80
2022-08-07T11:10:27.461Z,0.40
2022-08-07T11:15:54.734Z,0.22
2022-08-07T11:21:24.645Z,0.47
2022-08-07T11:27:16.641Z,0.47
2022-08-07T11:33:01.942Z,0.43
2022-08-07T11:38:54.092Z,0.55
2022-08-07T11:44:28.808Z,0.10
2022-08-07T11:50:31.653Z,0.45
2022-08-07T11:56:27.306Z,0.57
2022-08-07T12:02:20.649Z,0.25
2022-08-07T12:08:04.770Z,0.35
2022-08-07T12:13:45.533Z,0.30
2022-08-07T12:19:21.388Z,0.32
2022-08-07T12:26:00.263Z,0.47
2022-08-07T12:31:03.837Z,0.40
2022-08-07T12:36:32.773Z,0.35
2022-08-07T12:41:55.078Z,0.40
2022-08-07T12:47:50.197Z,0.52
2022-08-07T12:53:22.396Z,0.40
2022-08-07T12:58:53.184Z,0.43
2022-08-07T13:04:19.110Z,0.20
2022-08-07T13:10:39.856Z,0.40
2022-08-07T13:16:50.722Z,0.90
2022-08-07T13:22:37.769Z,0.30
2022-08-07T13:28:13.672Z,0.30
2022-08-07T13:34:31.338Z,0.30
2022-08-07T13:40:33.831Z,0.30
2022-08-07T13:46:21.010Z,0.40
2022-08-07T13:51:27.482Z,0.40
2022-08-07T13:56:52.122Z,0.75
2022-08-07T14:02:29.787Z,0.32
2022-08-07T14:08:01.037Z,0.22
2022-08-07T14:13:33.405Z,0.40
2022-08-07T14:18:56.954Z,0.40
2022-08-07T14:24:33.248Z,0.40
2022-08-07T14:30:05.217Z,0.30
2022-08-07T14:35:44.996Z,0.40
2022-08-07T14:46:37.773Z,0.35
2022-08-07T14:52:13.397Z,0.30
2022-08-07T14:57:58.286Z,0.28
2022-08-07T15:03:53.004Z,0.40
2022-08-07T15:09:59.718Z,0.40
2022-08-07T15:14:58.130Z,0.22
2022-08-07T15:20:32.822Z,0.30
2022-08-07T15:25:59.495Z,0.30
2022-08-07T15:32:01.623Z,0.40
2022-08-07T15:37:08.255Z,0.20
2022-08-07T15:42:48.318Z,0.30
2022-08-07T15:48:12.646Z,0.40
2022-08-07T15:53:52.019Z,0.50
2022-08-07T15:59:20.320Z,0.50
2022-08-07T16:05:04.383Z,0.30
2022-08-07T16:10:37.775Z,0.30
2022-08-07T16:16:47.791Z,0.40
2022-08-07T16:22:33.408Z,0.28
2022-08-07T16:28:14.187Z,0.47
2022-08-07T16:34:01.891Z,0.30
2022-08-07T16:39:48.653Z,0.35
2022-08-07T16:46:21.157Z,0.20
2022-08-07T16:51:57.664Z,0.38
2022-08-07T16:58:00.725Z,0.30
2022-08-07T17:03:17.426Z,0.22
2022-08-07T17:09:10.807Z,0.50
2022-08-07T17:14:37.612Z,0.40
2022-08-07T17:20:14.422Z,0.50
2022-08-07T17:26:22.577Z,0.60
2022-08-07T17:32:30.309Z,0.50
2022-08-07T17:38:36.525Z,0.40
2022-08-07T17:44:05.756Z,0.40
2022-08-07T17:49:45.370Z,0.40
2022-08-07T17:55:59.968Z,0.60
2022-08-07T18:01:18.227Z,0.50
2022-08-07T18:07:19.095Z,0.40
2022-08-07T18:12:34.708Z,0.40
2022-08-07T18:18:46.956Z,0.60
2022-08-07T18:23:57.206Z,0.55
2022-08-07T18:30:05.572Z,0.40
2022-08-07T18:35:51.579Z,0.40
2022-08-07T18:41:45.163Z,0.70
2022-08-07T18:47:44.480Z,0.68
2022-08-07T18:53:16.592Z,0.50
2022-08-07T18:58:55.883Z,0.68
2022-08-07T19:10:18.419Z,0.60
2022-08-07T19:17:01.107Z,0.63
2022-08-07T19:22:04.411Z,0.45
2022-08-07T19:28:30.745Z,0.77
2022-08-07T19:33:16.045Z,1.02
2022-08-07T19:38:52.866Z,0.65
2022-08-07T19:44:21.813Z,0.80
2022-08-07T19:49:56.676Z,0.95
2022-08-07T19:55:25.536Z,0.60
2022-08-07T20:01:09.564Z,0.57
2022-08-07T20:06:31.111Z,0.70
2022-08-07T20:12:22.150Z,0.90
2022-08-07T20:17:38.534Z,0.82
2022-08-07T20:23:10.797Z,0.90
2022-08-07T20:28:44.642Z,0.68
2022-08-07T20:34:10.022Z,0.82
2022-08-07T20:40:02.634Z,0.60
2022-08-07T20:45:32.680Z,0.98
2022-08-07T20:51:04.501Z,0.80
2022-08-07T21:01:58.313Z,1.33
2022-08-07T21:07:23.444Z,1.00
2022-08-07T21:12:47.264Z,0.93
2022-08-07T21:18:33.506Z,0.77
2022-08-07T21:24:16.370Z,0.60
2022-08-07T21:29:37.467Z,0.70
2022-08-07T21:35:08.114Z,0.80
2022-08-07T21:40:42.996Z,0.70
2022-08-07T21:46:25.309Z,0.75
2022-08-07T21:52:16.680Z,0.60
2022-08-07T21:58:30.104Z,0.80
2022-08-07T22:04:02.723Z,0.80
2022-08-07T22:09:38.103Z,0.65
2022-08-07T22:16:44.358Z,0.80
2022-08-07T22:21:16.819Z,0.50
2022-08-07T22:26:49.661Z,0.70
2022-08-07T22:32:20.418Z,0.75
2022-08-07T22:38:05.385Z,0.80
2022-08-07T22:43:34.057Z,0.80
2022-08-07T22:49:23.246Z,0.80
2022-08-07T22:55:17.485Z,0.65
2022-08-07T23:01:22.504Z,0.70
2022-08-07T23:07:39.748Z,0.57
2022-08-07T23:13:02.327Z,0.60
2022-08-07T23:19:11.245Z,0.77
2022-08-07T23:24:56.245Z,0.90
2022-08-07T23:30:38.707Z,0.70
2022-08-07T23:36:28.868Z,0.60
2022-08-07T23:42:30.457Z,1.10
2022-08-07T23:48:24.981Z,1.45
2022-08-07T23:54:19.567Z,1.48
